This is the latest recevied weather packets stored in our database for station/object ZB2YN-13. If no packets are shown the sender has not sent any weather packets the latest 10 day(s).
| Time | Temp. | Humidity | Pressure | Rain* | Wind** | Luminosity | Snow |
|---|---|---|---|---|---|---|---|
| 1777820406 | 24.44° C | 52% | 1006.2 hPa | 0 mm | - | - | - |
| 1777816806 | 23.89° C | 57% | 1006.6 hPa | 0 mm | - | - | - |
| 1777813205 | 23.33° C | 64% | 1006.9 hPa | 0 mm | - | - | - |
| 1777809605 | 21.67° C | 73% | 1007.5 hPa | 0 mm | - | - | - |
| 1777806006 | 21.11° C | 75% | 1008 hPa | 0 mm | - | - | - |
| 1777802406 | 20° C | 82% | 1008.3 hPa | 0 mm | - | - | - |
| 1777798806 | 20.56° C | 77% | 1008.1 hPa | 0 mm | - | - | - |
| 1777795205 | 17.78° C | 92% | 1008.1 hPa | 0 mm | - | - | - |
| 1777791605 | 17.22° C | 94% | 1007.7 hPa | 0 mm | - | - | - |
| 1777788006 | 17.22° C | 94% | 1007.4 hPa | 0 mm | - | - | - |
| 1777784406 | 17.22° C | 94% | 1007.2 hPa | 0 mm | - | - | - |
| 1777780805 | 17.22° C | 94% | 1007.1 hPa | 0 mm | - | - | - |
| 1777777205 | 17.22° C | 94% | 1007.8 hPa | 0 mm | - | - | - |
| 1777773605 | 17.22° C | 93% | 1007.9 hPa | 0 mm | - | - | - |
| 1777770006 | 17.78° C | 90% | 1008.3 hPa | 0 mm | - | - | - |
| 1777766406 | 17.78° C | 90% | 1009 hPa | 0 mm | - | - | - |
| 1777762806 | 17.22° C | 93% | 1009.2 hPa | 0 mm | - | - | - |
| 1777759205 | 17.78° C | 91% | 1009.1 hPa | 0 mm | - | - | - |
| 1777755605 | 17.78° C | 89% | 1008.9 hPa | 0 mm | - | - | - |
| 1777752006 | 18.33° C | 89% | 1008.4 hPa | 0 mm | - | - | - |
| 1777748406 | 18.33° C | 87% | 1008.1 hPa | 0 mm | - | - | - |
| 1777744806 | 18.89° C | 86% | 1008.5 hPa | 0 mm | - | - | - |
| 1777741205 | 18.89° C | 89% | 1008.6 hPa | 0 mm | - | - | - |
| 1777737605 | 18.89° C | 91% | 1009.2 hPa | 0 mm | - | - | - |
| 1777734006 | 18.33° C | 91% | 1009.5 hPa | 0 mm | - | - | - |
* Rain latest hour (hover to see other rain measurements)
** Current wind speed in m/s (hover to see current wind gust speed)